Time;durP1;ratioP1;P1;durP2;ratioP2;P2;SDS_P1;SDS_P2;PMS_P1;PMS_P2;Temp;Humidity;BMP_temperature;BMP_pressure;BME280_temperature;BME280_humidity;BME280_pressure;Samples;Min_cycle;Max_cycle;Signal;HPM_P1;HPM_P2
2023/10/11 00:01:27;;;;;;;38.00;18.30;;;16.90;99.90;;;;;;5040403;28;47047;-77
2023/10/11 00:03:53;;;;;;;30.70;17.08;;;16.90;99.90;;;;;;5051852;28;38882;-79
2023/10/11 00:06:19;;;;;;;32.67;16.95;;;16.90;99.90;;;;;;5052417;28;38680;-76
2023/10/11 00:08:46;;;;;;;32.33;18.85;;;17.00;99.90;;;;;;5037630;28;39116;-77
2023/10/11 00:11:18;;;;;;;30.38;17.33;;;16.90;99.90;;;;;;5042185;28;37823;-76
2023/10/11 00:13:46;;;;;;;40.85;19.27;;;16.90;99.90;;;;;;5044412;28;38664;-76
2023/10/11 00:16:16;;;;;;;36.17;19.42;;;17.00;99.90;;;;;;5048478;28;37552;-76
2023/10/11 00:18:43;;;;;;;35.67;19.15;;;17.00;99.90;;;;;;5043527;28;37215;-76
2023/10/11 00:21:17;;;;;;;38.00;18.55;;;16.90;99.90;;;;;;5042617;28;36322;-75
2023/10/11 00:23:45;;;;;;;34.88;18.67;;;16.90;99.90;;;;;;5038703;28;38136;-76
2023/10/11 00:26:14;;;;;;;33.60;18.27;;;16.90;99.90;;;;;;5053872;28;37471;-76
2023/10/11 00:28:40;;;;;;;35.83;19.05;;;16.90;99.90;;;;;;5040325;28;37887;-75
2023/10/11 00:31:18;;;;;;;29.27;17.85;;;16.90;99.90;;;;;;5044735;28;37407;-77
2023/10/11 00:33:44;;;;;;;35.25;18.58;;;17.00;99.90;;;;;;5045666;28;38521;-76
2023/10/11 00:36:10;;;;;;;37.40;18.77;;;16.90;99.90;;;;;;5041919;28;37303;-76
2023/10/11 00:38:46;;;;;;;34.25;18.90;;;16.90;99.90;;;;;;5041800;28;38153;-76
2023/10/11 00:41:12;;;;;;;35.45;19.67;;;16.90;99.90;;;;;;5042109;28;36601;-76
2023/10/11 00:43:47;;;;;;;35.88;19.08;;;16.90;99.90;;;;;;5045857;28;39007;-76
2023/10/11 00:46:14;;;;;;;33.13;19.40;;;16.90;99.90;;;;;;5039324;28;37772;-76
2023/10/11 00:51:46;;;;;;;40.83;21.35;;;16.90;99.90;;;;;;5020343;28;48627;-76
2023/10/11 00:54:15;;;;;;;34.47;19.73;;;16.90;99.90;;;;;;5034638;28;38006;-76
2023/10/11 00:56:48;;;;;;;38.53;20.67;;;16.90;99.90;;;;;;5039167;28;39452;-76
2023/10/11 00:59:14;;;;;;;39.67;21.15;;;16.90;99.90;;;;;;5038676;28;38893;-75
2023/10/11 01:04:16;;;;;;;37.85;22.05;;;16.90;99.90;;;;;;4982949;28;20051;-82
2023/10/11 01:06:42;;;;;;;41.90;19.77;;;16.90;99.90;;;;;;4993416;28;38434;-84
2023/10/11 01:09:17;;;;;;;37.50;22.15;;;16.90;99.90;;;;;;4999452;28;38893;-83
2023/10/11 01:11:47;;;;;;;39.28;21.42;;;16.90;99.90;;;;;;4991340;28;37304;-83
2023/10/11 01:14:13;;;;;;;44.63;23.30;;;16.80;99.90;;;;;;4988839;28;37481;-83
2023/10/11 01:16:41;;;;;;;40.45;22.27;;;16.80;99.90;;;;;;5004213;28;38505;-83
2023/10/11 01:19:11;;;;;;;43.30;23.27;;;16.80;99.90;;;;;;4982939;28;38260;-83
2023/10/11 01:21:38;;;;;;;34.67;20.73;;;16.80;99.90;;;;;;4991219;28;36501;-84
2023/10/11 01:24:08;;;;;;;39.42;22.25;;;16.70;99.90;;;;;;5013967;28;37545;-83
2023/10/11 01:26:35;;;;;;;41.10;21.65;;;16.70;99.90;;;;;;4990670;28;37260;-84
2023/10/11 01:29:01;;;;;;;41.83;23.00;;;16.70;99.90;;;;;;4990426;28;38078;-83
2023/10/11 01:31:33;;;;;;;33.05;20.02;;;16.70;99.90;;;;;;5008326;28;47204;-84
2023/10/11 01:33:59;;;;;;;38.50;21.47;;;16.70;99.90;;;;;;4992151;28;39271;-84
2023/10/11 01:36:26;;;;;;;43.28;20.02;;;16.70;99.90;;;;;;4986967;28;37316;-82
2023/10/11 01:38:52;;;;;;;37.53;20.88;;;16.60;99.90;;;;;;4999282;28;38579;-83
2023/10/11 01:41:22;;;;;;;32.83;20.23;;;16.60;99.90;;;;;;5000710;28;36648;-83
2023/10/11 01:43:50;;;;;;;37.00;21.23;;;16.60;99.90;;;;;;4982729;28;37583;-82
2023/10/11 01:46:21;;;;;;;35.67;20.65;;;16.60;99.90;;;;;;4984369;28;38681;-83
2023/10/11 01:48:47;;;;;;;41.72;21.70;;;16.60;99.90;;;;;;4993101;28;37832;-83
2023/10/11 01:51:21;;;;;;;34.22;21.63;;;16.60;99.90;;;;;;5008218;28;38165;-83
2023/10/11 01:53:47;;;;;;;33.42;20.33;;;16.60;99.90;;;;;;5017971;28;38045;-83
2023/10/11 01:56:14;;;;;;;37.08;19.95;;;16.60;99.90;;;;;;5016831;28;38549;-84
2023/10/11 01:58:42;;;;;;;31.55;19.17;;;16.50;99.90;;;;;;5015175;28;38249;-83
2023/10/11 02:01:23;;;;;;;36.17;19.35;;;16.50;99.90;;;;;;5005619;28;37535;-83
2023/10/11 02:03:56;;;;;;;35.33;19.75;;;16.50;99.90;;;;;;5006288;28;39125;-82
2023/10/11 02:06:25;;;;;;;34.42;18.33;;;16.50;99.90;;;;;;4988804;28;37130;-83
2023/10/11 02:08:52;;;;;;;27.98;17.75;;;16.50;99.90;;;;;;5002437;28;37637;-82
2023/10/11 02:11:24;;;;;;;32.97;19.48;;;16.40;99.90;;;;;;4994891;28;36381;-84
2023/10/11 02:13:51;;;;;;;;;;;16.40;99.90;;;;;;4989546;28;38747;-81
2023/10/11 02:16:17;;;;;;;33.00;18.52;;;16.40;99.90;;;;;;5002252;28;37384;-82
2023/10/11 02:18:43;;;;;;;33.65;17.30;;;16.40;99.90;;;;;;4994690;28;39170;-83
2023/10/11 02:21:09;;;;;;;29.10;18.40;;;16.40;99.90;;;;;;4992385;28;37936;-82
2023/10/11 02:23:40;;;;;;;33.40;17.30;;;16.40;99.90;;;;;;5005108;28;37914;-82
2023/10/11 02:26:12;;;;;;;32.30;18.30;;;16.30;99.90;;;;;;4998551;28;38797;-81
2023/10/11 02:28:39;;;;;;;30.77;18.48;;;16.30;99.90;;;;;;5006453;28;37554;-81
2023/10/11 02:31:06;;;;;;;27.67;17.02;;;16.30;99.90;;;;;;4997604;28;36564;-79
2023/10/11 02:33:33;;;;;;;26.52;15.57;;;16.30;99.90;;;;;;5006273;28;38953;-82
2023/10/11 02:36:08;;;;;;;28.08;17.40;;;16.30;99.90;;;;;;4979744;28;37213;-81
2023/10/11 02:38:49;;;;;;;31.02;17.10;;;16.30;99.90;;;;;;5020242;28;47130;-82
2023/10/11 02:41:25;;;;;;;25.98;15.80;;;16.30;99.90;;;;;;5001793;28;36858;-83
2023/10/11 02:43:52;;;;;;;25.58;15.90;;;16.30;99.90;;;;;;5011901;28;37995;-81
2023/10/11 02:46:23;;;;;;;32.72;16.45;;;16.30;99.90;;;;;;4990585;28;38964;-81
2023/10/11 02:48:54;;;;;;;26.42;16.42;;;16.30;99.90;;;;;;4994426;28;38177;-83
2023/10/11 02:51:24;;;;;;;32.13;17.17;;;16.20;99.90;;;;;;4999997;28;37415;-83
2023/10/11 02:53:53;;;;;;;26.50;16.17;;;16.30;99.90;;;;;;4989883;28;37575;-84
2023/10/11 02:56:20;;;;;;;28.77;16.20;;;16.30;99.90;;;;;;5018966;28;38265;-81
2023/10/11 02:58:49;;;;;;;30.88;17.48;;;16.30;99.90;;;;;;5006554;28;38279;-81
2023/10/11 03:01:20;;;;;;;28.70;16.45;;;16.30;99.90;;;;;;4991878;28;38236;-80
2023/10/11 03:03:52;;;;;;;29.08;17.05;;;16.30;99.90;;;;;;4993562;28;39419;-83
2023/10/11 03:06:18;;;;;;;29.58;16.92;;;16.30;99.90;;;;;;4994227;28;38109;-82
2023/10/11 03:08:45;;;;;;;32.30;17.95;;;16.30;99.90;;;;;;4984590;28;38574;-80
2023/10/11 03:11:17;;;;;;;36.70;18.95;;;16.30;99.90;;;;;;4990575;28;38031;-80
2023/10/11 03:13:45;;;;;;;29.55;17.38;;;16.20;99.90;;;;;;5016254;28;39101;-82
2023/10/11 03:16:18;;;;;;;30.88;16.73;;;16.20;99.90;;;;;;4997350;28;38217;-83
2023/10/11 03:18:47;;;;;;;29.60;17.70;;;16.20;99.90;;;;;;4995864;28;38821;-79
2023/10/11 03:21:21;;;;;;;28.35;18.58;;;16.20;99.90;;;;;;4992287;28;37057;-80
2023/10/11 03:23:54;;;;;;;32.08;18.05;;;16.20;99.90;;;;;;5018878;28;39016;-81
2023/10/11 03:26:39;;;;;;;30.25;18.85;;;16.10;99.90;;;;;;5010354;28;39786;-83
2023/10/11 03:29:06;;;;;;;29.85;17.85;;;16.10;99.90;;;;;;5008117;28;37264;-82
2023/10/11 03:31:33;;;;;;;37.50;19.33;;;16.10;99.90;;;;;;5012466;28;37296;-81
2023/10/11 03:34:10;;;;;;;29.77;18.80;;;16.10;99.90;;;;;;5018408;28;37543;-79
2023/10/11 03:36:49;;;;;;;33.15;18.98;;;16.10;99.90;;;;;;5007612;28;48488;-80
2023/10/11 03:44:45;;;;;;;29.92;19.02;;;16.00;99.90;;;;;;4990621;28;50460;-80
2023/10/11 03:47:18;;;;;;;31.75;19.58;;;16.00;99.90;;;;;;4992746;28;37410;-81
2023/10/11 03:49:51;;;;;;;37.90;21.92;;;16.00;99.90;;;;;;5008661;28;38124;-81
2023/10/11 03:52:33;;;;;;;37.20;21.85;;;16.10;99.90;;;;;;5014606;28;36549;-82
2023/10/11 03:55:17;;;;;;;37.92;20.17;;;16.10;99.90;;;;;;4999163;28;39222;-79
2023/10/11 03:57:45;;;;;;;36.55;21.35;;;16.10;99.90;;;;;;4995474;28;49053;-80
2023/10/11 04:02:47;;;;;;;45.45;22.85;;;16.10;99.90;;;;;;4995418;28;46926;-81
2023/10/11 04:05:13;;;;;;;34.38;20.50;;;16.20;99.90;;;;;;4997673;28;38054;-80
2023/10/11 04:07:40;;;;;;;40.30;22.60;;;16.20;99.90;;;;;;5004187;28;39653;-81
2023/10/11 04:10:19;;;;;;;38.17;21.05;;;16.20;99.90;;;;;;4988255;28;38100;-82
2023/10/11 04:12:46;;;;;;;35.33;20.77;;;16.20;99.90;;;;;;4997411;28;37611;-80
2023/10/11 04:15:24;;;;;;;35.75;21.75;;;16.20;99.90;;;;;;5000285;28;38516;-80
2023/10/11 04:17:55;;;;;;;41.15;21.75;;;16.30;99.90;;;;;;4994101;28;38797;-80
2023/10/11 04:20:29;;;;;;;41.88;20.75;;;16.30;99.90;;;;;;4993083;28;37311;-80
2023/10/11 04:23:14;;;;;;;38.22;21.30;;;16.30;99.90;;;;;;4992309;28;37632;-81
2023/10/11 04:25:43;;;;;;;39.20;21.60;;;16.30;99.90;;;;;;4989132;28;47206;-81
2023/10/11 04:28:12;;;;;;;35.65;21.25;;;16.30;99.90;;;;;;4990399;28;38996;-81
2023/10/11 04:30:43;;;;;;;40.17;22.13;;;16.30;99.90;;;;;;4990835;28;37125;-80
2023/10/11 04:33:20;;;;;;;37.55;21.08;;;16.40;99.90;;;;;;4985609;28;36454;-81
2023/10/11 04:35:55;;;;;;;38.60;21.70;;;16.40;99.90;;;;;;4986039;28;38276;-80
2023/10/11 04:38:22;;;;;;;31.90;20.95;;;16.30;99.90;;;;;;4983520;28;38531;-79
2023/10/11 04:40:52;;;;;;;43.47;21.95;;;16.30;99.90;;;;;;4998256;28;38107;-80
2023/10/11 04:43:24;;;;;;;32.95;20.63;;;16.30;99.90;;;;;;4990371;28;37227;-81
2023/10/11 04:45:55;;;;;;;38.13;21.17;;;16.30;99.90;;;;;;4992855;28;38174;-79
2023/10/11 04:48:32;;;;;;;38.97;21.52;;;16.30;99.90;;;;;;4982703;28;38590;-81
2023/10/11 04:53:58;;;;;;;37.97;20.70;;;16.30;99.90;;;;;;4996312;28;49255;-81
2023/10/11 04:59:16;;;;;;;31.58;21.23;;;16.30;99.90;;;;;;4996276;28;39576;-80
2023/10/11 05:04:16;;;;;;;41.38;21.30;;;16.30;99.90;;;;;;4999725;28;38782;-83
2023/10/11 05:06:43;;;;;;;39.72;21.33;;;16.30;99.90;;;;;;5002178;28;37885;-83
2023/10/11 05:11:58;;;;;;;42.20;23.35;;;16.30;99.90;;;;;;4981120;28;38700;-83
2023/10/11 05:14:40;;;;;;;36.83;21.70;;;16.30;99.90;;;;;;5006349;28;37700;-81
2023/10/11 05:22:49;;;;;;;39.22;20.92;;;16.40;99.90;;;;;;4998420;28;47805;-77
2023/10/11 05:27:51;;;;;;;35.88;20.13;;;16.40;99.90;;;;;;4986370;28;39080;-77
2023/10/11 05:30:28;;;;;;;44.35;21.63;;;16.40;99.90;;;;;;4987684;28;38534;-76
2023/10/11 05:51:56;;;;;;;37.10;20.42;;;16.40;99.90;;;;;;4985969;28;38365;-79
2023/10/11 05:54:22;;;;;;;32.78;20.60;;;16.40;99.90;;;;;;4996095;28;37952;-82
2023/10/11 05:56:49;;;;;;;33.97;20.30;;;16.40;99.90;;;;;;4991363;28;37191;-79
2023/10/11 05:59:15;;;;;;;34.92;20.85;;;16.40;99.90;;;;;;4991855;28;39444;-82
2023/10/11 06:01:44;;;;;;;34.17;18.98;;;16.40;99.90;;;;;;4994298;28;37472;-80
2023/10/11 06:04:13;;;;;;;36.55;19.60;;;16.50;99.90;;;;;;4991687;28;37428;-79
2023/10/11 06:06:45;;;;;;;36.80;20.77;;;16.40;99.90;;;;;;4990418;28;38627;-79
2023/10/11 06:09:17;;;;;;;32.58;19.27;;;16.50;99.90;;;;;;4994835;28;39418;-80
2023/10/11 06:11:50;;;;;;;36.55;19.63;;;16.50;99.90;;;;;;4992751;28;38523;-79
2023/10/11 06:14:18;;;;;;;37.38;19.85;;;16.50;99.90;;;;;;4994304;28;39178;-81
2023/10/11 06:16:57;;;;;;;40.17;20.23;;;16.50;99.90;;;;;;4995790;28;37798;-80
2023/10/11 06:19:27;;;;;;;34.85;20.35;;;16.50;99.90;;;;;;4988608;28;38003;-79
2023/10/11 06:21:59;;;;;;;32.70;18.70;;;16.50;99.90;;;;;;5020821;28;38112;-79
2023/10/11 06:24:34;;;;;;;44.25;20.73;;;16.60;99.90;;;;;;5000471;28;39602;-79
2023/10/11 06:29:37;;;;;;;38.13;21.52;;;16.60;99.90;;;;;;4995247;28;48259;-81
2023/10/11 06:32:11;;;;;;;34.50;19.98;;;16.70;99.90;;;;;;4988235;28;37122;-82
2023/10/11 06:34:44;;;;;;;38.40;21.27;;;16.70;99.90;;;;;;4984671;28;38508;-82
2023/10/11 06:37:14;;;;;;;44.30;20.77;;;16.70;99.90;;;;;;4985919;28;36399;-81
2023/10/11 06:42:14;;;;;;;41.03;21.48;;;16.70;99.90;;;;;;4991069;28;38574;-83
2023/10/11 06:44:42;;;;;;;36.05;20.67;;;16.70;99.90;;;;;;4998581;28;39062;-80
2023/10/11 06:47:11;;;;;;;42.42;22.40;;;16.70;99.90;;;;;;5001231;28;36313;-81
2023/10/11 06:49:40;;;;;;;38.67;21.42;;;16.80;99.90;;;;;;4997487;28;37617;-78
2023/10/11 06:52:17;;;;;;;38.53;20.05;;;16.80;99.90;;;;;;4998619;28;37932;-80
2023/10/11 06:54:47;;;;;;;42.22;20.95;;;16.80;99.90;;;;;;4992514;28;36956;-80
2023/10/11 06:57:21;;;;;;;36.63;19.40;;;16.90;99.90;;;;;;4999630;28;38715;-80
2023/10/11 06:59:51;;;;;;;40.38;20.88;;;16.90;99.90;;;;;;4996859;28;38679;-79
2023/10/11 07:02:18;;;;;;;47.90;21.15;;;16.90;99.90;;;;;;4992158;28;38069;-80
2023/10/11 07:04:50;;;;;;;42.42;21.25;;;16.90;99.90;;;;;;4991756;28;37757;-81
2023/10/11 07:07:19;;;;;;;37.60;19.98;;;16.90;99.90;;;;;;4994488;28;36874;-82
2023/10/11 07:09:56;;;;;;;48.05;21.50;;;16.90;99.90;;;;;;4993038;28;39209;-82
2023/10/11 07:12:39;;;;;;;42.78;20.77;;;17.00;99.90;;;;;;4995025;28;39683;-80
2023/10/11 07:15:08;;;;;;;;;;;17.00;99.90;;;;;;4991547;28;37214;-79
2023/10/11 07:17:34;;;;;;;38.40;18.73;;;17.00;99.90;;;;;;4998874;28;37256;-79
2023/10/11 07:20:00;;;;;;;38.20;18.15;;;17.10;99.90;;;;;;5011159;28;37752;-77
2023/10/11 07:22:27;;;;;;;41.95;18.73;;;17.10;99.90;;;;;;4996697;28;37843;-78
2023/10/11 07:24:57;;;;;;;37.67;18.88;;;17.10;99.90;;;;;;4996692;28;37075;-80
2023/10/11 07:27:37;;;;;;;37.85;19.10;;;17.10;99.90;;;;;;4987192;28;36132;-78
2023/10/11 07:30:16;;;;;;;40.53;19.08;;;17.20;99.90;;;;;;4988685;28;39396;-80
2023/10/11 07:32:45;;;;;;;44.65;18.52;;;17.10;99.90;;;;;;4987170;28;47298;-77
2023/10/11 07:35:26;;;;;;;38.83;18.02;;;17.20;99.90;;;;;;5018334;28;37100;-78
2023/10/11 07:37:53;;;;;;;33.83;18.15;;;17.20;99.90;;;;;;4990406;28;36894;-78
2023/10/11 07:40:32;;;;;;;37.55;18.92;;;17.20;99.90;;;;;;4989870;28;39776;-78
2023/10/11 07:42:58;;;;;;;44.53;18.70;;;17.20;99.90;;;;;;4994239;28;38095;-77
2023/10/11 07:45:26;;;;;;;39.83;18.63;;;17.30;99.90;;;;;;4990185;28;36830;-78
2023/10/11 07:47:53;;;;;;;42.05;18.45;;;17.30;99.90;;;;;;4992000;28;37708;-78
2023/10/11 07:50:22;;;;;;;39.17;18.38;;;17.30;99.90;;;;;;4989330;28;39378;-79
2023/10/11 07:52:49;;;;;;;40.55;19.50;;;17.30;99.90;;;;;;4986179;28;38411;-78
2023/10/11 07:55:17;;;;;;;43.00;19.30;;;17.30;99.90;;;;;;4982428;28;37283;-78
2023/10/11 07:57:46;;;;;;;44.95;20.50;;;17.30;99.90;;;;;;4993208;28;37005;-79
2023/10/11 08:00:20;;;;;;;38.17;19.73;;;17.30;99.90;;;;;;4992034;28;38727;-78
2023/10/11 08:03:05;;;;;;;42.78;19.48;;;17.30;99.90;;;;;;4992763;28;46957;-80
2023/10/11 08:05:36;;;;;;;39.92;20.05;;;17.40;99.90;;;;;;4992930;28;46669;-79
2023/10/11 08:08:05;;;;;;;46.90;20.30;;;17.40;99.90;;;;;;4982688;28;36187;-78
2023/10/11 08:10:35;;;;;;;52.63;21.75;;;17.30;99.90;;;;;;4994782;28;37868;-79
2023/10/11 08:13:02;;;;;;;45.20;21.10;;;17.30;99.90;;;;;;4993403;28;38392;-80
2023/10/11 08:15:29;;;;;;;41.45;20.52;;;17.40;99.90;;;;;;4991808;28;48056;-79
2023/10/11 08:17:55;;;;;;;52.95;21.90;;;17.40;99.90;;;;;;4989309;28;37211;-78
2023/10/11 08:20:28;;;;;;;42.78;20.10;;;17.40;99.90;;;;;;4992525;28;38820;-79
2023/10/11 08:22:56;;;;;;;;;;;17.40;99.90;;;;;;4993529;28;37707;-79
2023/10/11 08:25:30;;;;;;;47.65;20.20;;;17.50;99.90;;;;;;4992304;28;38980;-79
2023/10/11 08:28:19;;;;;;;45.80;21.30;;;17.50;99.90;;;;;;4994002;28;37607;-80
2023/10/11 08:30:45;;;;;;;45.15;21.38;;;17.50;99.90;;;;;;4988984;28;48830;-80
2023/10/11 08:33:12;;;;;;;49.47;22.48;;;17.50;99.90;;;;;;4990174;28;37949;-80
2023/10/11 08:35:38;;;;;;;54.85;22.15;;;17.50;99.90;;;;;;4996590;28;38614;-79
2023/10/11 08:38:07;;;;;;;47.33;20.75;;;17.50;99.90;;;;;;5026213;28;36496;-80
2023/10/11 08:40:37;;;;;;;61.13;22.02;;;17.60;99.90;;;;;;4990312;28;38794;-79
2023/10/11 08:43:04;;;;;;;44.50;19.83;;;17.60;99.90;;;;;;4983568;28;37716;-80
2023/10/11 08:45:42;;;;;;;50.45;21.42;;;17.70;99.90;;;;;;4987444;28;39168;-80
2023/10/11 08:48:08;;;;;;;47.97;20.98;;;17.70;99.90;;;;;;4981617;28;36523;-80
2023/10/11 08:50:35;;;;;;;52.70;20.58;;;17.70;99.90;;;;;;4989170;28;37629;-81
2023/10/11 08:53:08;;;;;;;49.30;19.15;;;17.80;99.90;;;;;;4991741;28;38474;-77
2023/10/11 08:55:41;;;;;;;47.38;18.63;;;17.70;99.90;;;;;;4989303;28;39065;-80
2023/10/11 08:58:30;;;;;;;43.35;20.23;;;17.80;99.90;;;;;;4991650;28;37224;-79
2023/10/11 09:00:59;;;;;;;44.10;19.55;;;17.80;99.90;;;;;;4995684;28;39127;-79
2023/10/11 09:03:28;;;;;;;56.65;20.23;;;17.90;99.90;;;;;;5001740;28;38320;-79
2023/10/11 09:06:00;;;;;;;49.53;19.98;;;17.90;99.90;;;;;;5002209;28;37660;-80
2023/10/11 09:08:31;;;;;;;57.80;21.17;;;17.90;99.90;;;;;;5009522;28;46852;-79
2023/10/11 09:11:11;;;;;;;50.55;19.10;;;17.90;99.90;;;;;;4994362;28;38166;-80
2023/10/11 09:13:38;;;;;;;49.58;20.63;;;18.00;99.90;;;;;;4996613;28;47131;-80
2023/10/11 09:16:12;;;;;;;44.70;18.63;;;18.00;99.90;;;;;;5022906;28;38083;-79
2023/10/11 09:18:39;;;;;;;36.97;18.30;;;18.10;99.90;;;;;;4989299;28;37068;-79
2023/10/11 09:21:15;;;;;;;49.78;19.00;;;18.10;99.90;;;;;;5001031;28;37770;-80
2023/10/11 09:23:46;;;;;;;42.40;17.27;;;18.20;99.90;;;;;;5000291;28;38086;-79
2023/10/11 09:26:32;;;;;;;51.38;18.80;;;18.20;99.90;;;;;;4997826;28;38395;-79
2023/10/11 09:29:02;;;;;;;38.47;16.17;;;18.40;99.90;;;;;;5008536;28;36299;-79
2023/10/11 09:31:31;;;;;;;36.22;14.30;;;18.40;99.90;;;;;;4984280;28;48471;-80
2023/10/11 09:34:03;;;;;;;40.67;12.95;;;18.40;99.90;;;;;;4984017;28;37537;-80
2023/10/11 09:36:31;;;;;;;28.23;13.07;;;18.50;99.90;;;;;;5007711;28;47868;-79
2023/10/11 09:39:04;;;;;;;32.95;11.95;;;18.50;99.90;;;;;;4995814;28;36341;-79
2023/10/11 09:41:41;;;;;;;27.08;11.13;;;18.50;99.90;;;;;;5000453;28;49039;-79
2023/10/11 09:44:11;;;;;;;25.73;11.05;;;18.50;99.90;;;;;;4995995;28;37515;-77
2023/10/11 09:46:38;;;;;;;30.98;11.05;;;18.50;99.90;;;;;;4991141;28;37218;-78
2023/10/11 09:49:12;;;;;;;30.92;11.50;;;18.50;99.90;;;;;;4990843;28;37290;-79
2023/10/11 09:51:46;;;;;;;31.52;11.23;;;18.60;99.90;;;;;;4988144;28;39436;-79
2023/10/11 09:54:13;;;;;;;28.15;10.25;;;18.70;99.90;;;;;;4989136;28;38842;-80
2023/10/11 09:56:45;;;;;;;19.70;8.88;;;18.70;99.90;;;;;;5009416;28;39074;-79
2023/10/11 09:59:29;;;;;;;18.65;8.43;;;18.80;99.90;;;;;;4991729;28;37587;-80
2023/10/11 10:02:23;;;;;;;22.40;8.80;;;18.90;99.90;;;;;;5006311;28;39275;-79
2023/10/11 10:04:52;;;;;;;17.80;7.35;;;19.00;99.90;;;;;;4993666;28;47394;-79
2023/10/11 10:07:26;;;;;;;14.52;6.93;;;19.00;99.90;;;;;;4994571;28;37448;-80
2023/10/11 10:09:53;;;;;;;19.48;7.00;;;19.10;99.90;;;;;;5026446;28;36344;-79
2023/10/11 10:12:22;;;;;;;20.50;7.93;;;19.20;99.90;;;;;;4991572;28;38395;-80
2023/10/11 10:15:00;;;;;;;23.17;8.07;;;19.40;99.90;;;;;;4995311;28;38696;-80
2023/10/11 10:17:26;;;;;;;18.42;6.78;;;19.50;99.90;;;;;;4996690;28;36369;-79
2023/10/11 10:19:52;;;;;;;18.25;6.78;;;19.60;99.90;;;;;;4993248;28;36323;-79
2023/10/11 10:22:23;;;;;;;13.48;5.40;;;19.70;99.90;;;;;;4989894;28;38751;-80
2023/10/11 10:24:55;;;;;;;15.70;5.47;;;19.80;99.90;;;;;;4991172;28;37254;-78
2023/10/11 10:27:36;;;;;;;;;;;19.80;99.90;;;;;;4994305;28;37106;-78
2023/10/11 10:30:07;;;;;;;19.45;5.63;;;19.80;99.90;;;;;;4982322;28;36611;-78
2023/10/11 10:32:34;;;;;;;15.38;4.65;;;19.90;99.90;;;;;;4983323;28;47331;-79
2023/10/11 10:35:18;;;;;;;15.00;5.30;;;19.90;99.90;;;;;;4993205;28;38834;-81
2023/10/11 10:37:47;;;;;;;19.88;5.28;;;20.00;99.90;;;;;;4996050;28;48694;-82
2023/10/11 10:40:24;;;;;;;13.80;4.63;;;20.00;99.90;;;;;;5005430;28;36128;-81
2023/10/11 10:43:14;;;;;;;13.95;4.70;;;20.10;99.90;;;;;;5019944;28;39005;-82
2023/10/11 10:45:40;;;;;;;9.60;4.38;;;20.40;99.90;;;;;;5012963;28;47021;-82
2023/10/11 10:48:19;;;;;;;14.98;3.92;;;20.50;99.90;;;;;;5000645;28;37003;-83
2023/10/11 10:50:54;;;;;;;14.27;4.60;;;20.60;99.90;;;;;;5034613;28;36806;-82
2023/10/11 10:53:20;;;;;;;11.48;4.95;;;20.70;99.90;;;;;;5000159;28;39007;-81
2023/10/11 10:55:47;;;;;;;16.23;4.95;;;20.60;99.90;;;;;;5002118;28;37673;-84
2023/10/11 10:58:19;;;;;;;14.27;4.10;;;20.50;99.90;;;;;;5001492;28;37984;-82
2023/10/11 11:00:52;;;;;;;8.85;3.67;;;20.40;99.90;;;;;;5000050;28;37272;-82
2023/10/11 11:03:23;;;;;;;8.60;3.60;;;20.40;99.90;;;;;;5000294;28;38006;-84
2023/10/11 11:05:56;;;;;;;10.48;3.85;;;20.40;99.90;;;;;;5003405;28;39572;-82
2023/10/11 11:08:37;;;;;;;12.35;4.60;;;20.50;99.90;;;;;;4991488;28;38124;-82
2023/10/11 11:11:25;;;;;;;11.10;3.95;;;20.50;99.90;;;;;;5010376;28;37170;-83
2023/10/11 11:13:54;;;;;;;12.70;5.10;;;20.60;99.90;;;;;;4998502;28;38829;-82
2023/10/11 11:16:26;;;;;;;11.43;4.95;;;20.70;99.90;;;;;;4997743;28;37717;-81
2023/10/11 11:18:53;;;;;;;11.57;5.13;;;20.80;99.90;;;;;;4989882;28;36933;-81
2023/10/11 11:21:26;;;;;;;11.85;4.80;;;20.90;99.90;;;;;;4989823;28;36730;-81
2023/10/11 11:23:52;;;;;;;13.90;5.32;;;20.90;99.90;;;;;;4994171;28;37187;-80
2023/10/11 11:26:21;;;;;;;17.02;5.85;;;20.60;99.90;;;;;;4992124;28;37734;-80
2023/10/11 11:28:49;;;;;;;17.52;5.85;;;20.50;99.90;;;;;;4996457;28;36890;-79
2023/10/11 11:31:30;;;;;;;10.90;5.10;;;20.40;99.90;;;;;;5002266;28;36080;-79
2023/10/11 11:34:13;;;;;;;20.13;5.00;;;20.30;99.90;;;;;;4987211;28;37630;-79
2023/10/11 11:36:42;;;;;;;19.17;5.15;;;20.20;99.90;;;;;;5015079;28;47660;-79
2023/10/11 11:39:36;;;;;;;15.60;5.38;;;20.20;99.90;;;;;;4990549;28;37707;-79
2023/10/11 11:42:07;;;;;;;13.45;5.18;;;20.10;99.90;;;;;;4986514;28;37216;-79
2023/10/11 11:44:34;;;;;;;12.40;5.28;;;20.10;99.90;;;;;;4996353;28;38743;-78
2023/10/11 11:47:05;;;;;;;14.40;5.82;;;20.10;99.90;;;;;;4988708;28;37320;-78
2023/10/11 11:49:33;;;;;;;25.70;7.25;;;20.00;99.90;;;;;;4994001;28;48903;-77
2023/10/11 11:52:00;;;;;;;17.67;6.45;;;20.00;99.90;;;;;;4994946;28;37005;-77
2023/10/11 11:54:29;;;;;;;12.93;6.25;;;20.00;99.90;;;;;;4988555;28;38532;-78
2023/10/11 11:56:57;;;;;;;16.50;6.22;;;20.00;99.90;;;;;;4982725;28;38199;-79
2023/10/11 11:59:25;;;;;;;16.38;7.13;;;20.00;99.90;;;;;;4983502;28;37581;-78
2023/10/11 12:02:01;;;;;;;17.77;6.80;;;20.00;99.90;;;;;;4982893;28;36905;-78
2023/10/11 12:04:29;;;;;;;17.75;6.68;;;20.00;99.90;;;;;;4999329;28;47170;-78
2023/10/11 12:06:59;;;;;;;16.77;6.32;;;20.00;99.90;;;;;;5007947;28;38468;-78
2023/10/11 12:09:32;;;;;;;16.75;6.43;;;20.00;99.90;;;;;;5015859;28;38503;-78
2023/10/11 12:12:03;;;;;;;18.15;6.97;;;20.00;99.90;;;;;;4993001;28;38513;-78
2023/10/11 12:14:30;;;;;;;18.00;6.97;;;19.90;99.90;;;;;;4995931;28;47418;-78
2023/10/11 12:16:57;;;;;;;18.75;7.95;;;19.90;99.90;;;;;;4986338;28;38002;-78
2023/10/11 12:19:24;;;;;;;20.20;8.65;;;20.00;99.90;;;;;;4985957;28;37534;-78
2023/10/11 12:21:57;;;;;;;22.20;8.77;;;20.00;99.90;;;;;;4997293;28;36655;-78
2023/10/11 12:24:26;;;;;;;;;;;20.00;99.90;;;;;;4988829;28;38642;-78
2023/10/11 12:26:57;;;;;;;23.38;11.55;;;20.00;99.90;;;;;;4986936;28;37467;-78
2023/10/11 12:29:26;;;;;;;26.70;11.85;;;19.90;99.90;;;;;;4991261;28;37800;-78
2023/10/11 12:31:54;;;;;;;24.75;11.82;;;19.90;99.90;;;;;;4988182;28;36198;-78
2023/10/11 12:34:24;;;;;;;24.70;12.48;;;19.90;99.90;;;;;;4987498;28;38537;-79
2023/10/11 12:36:53;;;;;;;26.65;13.18;;;19.90;99.90;;;;;;4982591;28;38936;-78
2023/10/11 12:39:20;;;;;;;21.95;12.93;;;19.90;99.90;;;;;;4989796;28;38085;-78
2023/10/11 12:41:49;;;;;;;29.33;14.43;;;19.80;99.90;;;;;;4989118;28;36346;-79
2023/10/11 12:44:16;;;;;;;33.30;15.57;;;19.80;99.90;;;;;;4982859;28;40030;-78
2023/10/11 12:46:42;;;;;;;26.02;14.73;;;19.80;99.90;;;;;;5018052;28;38392;-78
2023/10/11 12:49:13;;;;;;;33.08;15.32;;;19.80;99.90;;;;;;4990543;28;38022;-78
2023/10/11 12:51:44;;;;;;;25.98;14.00;;;19.70;99.90;;;;;;4984956;28;37122;-78
2023/10/11 12:54:14;;;;;;;23.63;14.30;;;19.60;99.90;;;;;;4978981;28;38777;-80
2023/10/11 12:56:44;;;;;;;30.85;15.27;;;19.60;99.90;;;;;;4982210;28;41689;-79
2023/10/11 12:59:12;;;;;;;30.27;14.65;;;19.50;99.90;;;;;;4987157;28;39466;-78
2023/10/11 13:02:06;;;;;;;30.20;15.25;;;19.50;99.90;;;;;;4992606;28;37186;-79
2023/10/11 13:04:36;;;;;;;25.77;14.32;;;19.50;99.90;;;;;;4993748;28;47256;-79
2023/10/11 13:07:10;;;;;;;32.67;14.70;;;19.50;99.90;;;;;;4993747;28;38020;-80
2023/10/11 13:09:36;;;;;;;26.70;13.55;;;19.60;99.90;;;;;;4997843;28;47180;-80
2023/10/11 13:12:05;;;;;;;26.83;12.25;;;19.70;99.90;;;;;;4996571;28;36461;-80
2023/10/11 13:14:33;;;;;;;27.83;12.85;;;19.70;99.90;;;;;;4983859;28;38238;-80
2023/10/11 13:17:00;;;;;;;24.90;13.23;;;19.70;99.90;;;;;;4992407;28;39075;-80
2023/10/11 13:19:27;;;;;;;27.70;13.05;;;19.70;99.90;;;;;;4986973;28;37492;-79
2023/10/11 13:21:55;;;;;;;23.38;12.68;;;19.70;99.90;;;;;;4992048;28;36357;-80
2023/10/11 13:24:23;;;;;;;26.55;12.63;;;19.70;99.90;;;;;;4992544;28;38583;-79
2023/10/11 13:26:51;;;;;;;24.98;13.15;;;19.80;99.90;;;;;;4984489;28;37487;-79
2023/10/11 13:29:18;;;;;;;31.55;14.00;;;19.80;99.90;;;;;;4989520;28;37566;-78
2023/10/11 13:31:53;;;;;;;30.10;14.75;;;19.80;99.90;;;;;;4987963;28;37340;-78
2023/10/11 13:34:24;;;;;;;24.50;13.55;;;19.80;99.90;;;;;;4983001;28;37636;-79
2023/10/11 13:36:51;;;;;;;27.83;14.20;;;19.90;99.90;;;;;;4984028;28;38933;-78
2023/10/11 13:39:27;;;;;;;30.40;13.80;;;20.10;99.90;;;;;;4989235;28;37276;-78
2023/10/11 13:42:03;;;;;;;28.50;15.25;;;20.20;99.90;;;;;;4986343;28;36278;-78
2023/10/11 13:44:31;;;;;;;27.08;13.93;;;20.30;99.90;;;;;;4978757;28;47167;-81
2023/10/11 13:46:58;;;;;;;29.20;14.18;;;20.30;99.90;;;;;;4989195;28;38705;-80